sensor_id;sensor_type;location;lat;lon;timestamp;pressure;altitude;pressure_sealevel;temperature;humidity
69971;BME280;57301;50.328;8.542;2023-03-14T00:00:57;96502.31;;;9.72;81.59
69971;BME280;57301;50.328;8.542;2023-03-14T00:03:24;96489.22;;;9.71;80.81
69971;BME280;57301;50.328;8.542;2023-03-14T00:05:51;96479.00;;;9.81;80.79
69971;BME280;57301;50.328;8.542;2023-03-14T00:08:17;96480.44;;;9.77;81.14
69971;BME280;57301;50.328;8.542;2023-03-14T00:10:44;96496.13;;;9.65;81.88
69971;BME280;57301;50.328;8.542;2023-03-14T00:13:10;96495.97;;;9.73;81.31
69971;BME280;57301;50.328;8.542;2023-03-14T00:15:37;96517.44;;;9.65;81.95
69971;BME280;57301;50.328;8.542;2023-03-14T00:18:03;96530.31;;;9.68;82.20
69971;BME280;57301;50.328;8.542;2023-03-14T00:20:30;96529.94;;;9.71;82.15
69971;BME280;57301;50.328;8.542;2023-03-14T00:22:56;96530.56;;;9.73;82.11
69971;BME280;57301;50.328;8.542;2023-03-14T00:25:22;96504.97;;;9.72;82.35
69971;BME280;57301;50.328;8.542;2023-03-14T00:27:52;96525.19;;;9.66;82.34
69971;BME280;57301;50.328;8.542;2023-03-14T00:30:19;96513.75;;;9.66;82.38
69971;BME280;57301;50.328;8.542;2023-03-14T00:32:45;96535.59;;;9.61;82.48
69971;BME280;57301;50.328;8.542;2023-03-14T00:35:12;96525.19;;;9.66;81.99
69971;BME280;57301;50.328;8.542;2023-03-14T00:37:38;96534.00;;;9.67;82.52
69971;BME280;57301;50.328;8.542;2023-03-14T00:40:06;96533.97;;;9.60;82.86
69971;BME280;57301;50.328;8.542;2023-03-14T00:42:33;96519.88;;;9.66;82.67
69971;BME280;57301;50.328;8.542;2023-03-14T00:45:00;96520.31;;;9.70;81.12
69971;BME280;57301;50.328;8.542;2023-03-14T00:47:27;96494.50;;;9.64;82.69
69971;BME280;57301;50.328;8.542;2023-03-14T00:49:53;96503.06;;;9.59;84.09
69971;BME280;57301;50.328;8.542;2023-03-14T00:52:19;96476.16;;;9.41;86.61
69971;BME280;57301;50.328;8.542;2023-03-14T00:54:46;96458.53;;;9.33;86.95
69971;BME280;57301;50.328;8.542;2023-03-14T00:57:13;96452.72;;;9.23;87.02
69971;BME280;57301;50.328;8.542;2023-03-14T00:59:39;96438.41;;;9.24;86.36
69971;BME280;57301;50.328;8.542;2023-03-14T01:02:05;96440.00;;;9.19;87.02
69971;BME280;57301;50.328;8.542;2023-03-14T01:04:32;96437.91;;;9.14;87.18
69971;BME280;57301;50.328;8.542;2023-03-14T01:06:59;96442.81;;;9.10;87.45
69971;BME280;57301;50.328;8.542;2023-03-14T01:09:25;96445.28;;;9.12;87.51
69971;BME280;57301;50.328;8.542;2023-03-14T01:11:51;96458.81;;;9.17;86.62
69971;BME280;57301;50.328;8.542;2023-03-14T01:14:18;96450.88;;;9.24;85.70
69971;BME280;57301;50.328;8.542;2023-03-14T01:16:45;96468.72;;;9.30;85.23
69971;BME280;57301;50.328;8.542;2023-03-14T01:19:11;96466.66;;;9.32;85.56
69971;BME280;57301;50.328;8.542;2023-03-14T01:21:37;96473.84;;;9.31;86.45
69971;BME280;57301;50.328;8.542;2023-03-14T01:24:05;96468.22;;;9.20;88.35
69971;BME280;57301;50.328;8.542;2023-03-14T01:26:34;96468.22;;;9.20;87.49
69971;BME280;57301;50.328;8.542;2023-03-14T01:29:01;96456.41;;;9.22;87.29
69971;BME280;57301;50.328;8.542;2023-03-14T01:31:28;96445.94;;;9.21;86.73
69971;BME280;57301;50.328;8.542;2023-03-14T01:33:54;96455.59;;;9.22;86.06
69971;BME280;57301;50.328;8.542;2023-03-14T01:36:21;96450.31;;;9.28;84.70
69971;BME280;57301;50.328;8.542;2023-03-14T01:38:47;96452.34;;;9.33;83.76
69971;BME280;57301;50.328;8.542;2023-03-14T01:41:21;96452.78;;;9.36;83.79
69971;BME280;57301;50.328;8.542;2023-03-14T01:43:48;96444.22;;;9.41;82.63
69971;BME280;57301;50.328;8.542;2023-03-14T01:46:25;96429.28;;;9.40;83.09
69971;BME280;57301;50.328;8.542;2023-03-14T01:49:06;96415.00;;;9.48;82.45
69971;BME280;57301;50.328;8.542;2023-03-14T01:51:39;96422.13;;;9.40;82.87
69971;BME280;57301;50.328;8.542;2023-03-14T01:54:34;96412.34;;;9.48;82.36
69971;BME280;57301;50.328;8.542;2023-03-14T01:57:13;96409.41;;;9.36;83.57
69971;BME280;57301;50.328;8.542;2023-03-14T01:59:46;96414.09;;;9.27;83.80
69971;BME280;57301;50.328;8.542;2023-03-14T02:02:15;96409.16;;;9.24;82.96
69971;BME280;57301;50.328;8.542;2023-03-14T02:04:42;96396.25;;;9.21;83.30
69971;BME280;57301;50.328;8.542;2023-03-14T02:07:16;96395.47;;;9.27;82.25
69971;BME280;57301;50.328;8.542;2023-03-14T02:09:44;96395.03;;;9.24;82.07
69971;BME280;57301;50.328;8.542;2023-03-14T02:12:13;96394.44;;;9.28;82.37
69971;BME280;57301;50.328;8.542;2023-03-14T02:14:40;96425.50;;;9.21;82.92
69971;BME280;57301;50.328;8.542;2023-03-14T02:17:08;96396.88;;;9.23;83.14
69971;BME280;57301;50.328;8.542;2023-03-14T02:22:26;96401.16;;;9.24;82.92
69971;BME280;57301;50.328;8.542;2023-03-14T02:27:32;96421.63;;;9.24;83.79
69971;BME280;57301;50.328;8.542;2023-03-14T02:30:03;96406.94;;;9.28;83.18
69971;BME280;57301;50.328;8.542;2023-03-14T02:32:32;96407.38;;;9.38;83.53
69971;BME280;57301;50.328;8.542;2023-03-14T02:35:04;96381.31;;;9.27;84.15
69971;BME280;57301;50.328;8.542;2023-03-14T02:37:38;96385.41;;;9.23;83.75
69971;BME280;57301;50.328;8.542;2023-03-14T02:40:05;96374.19;;;9.27;84.00
69971;BME280;57301;50.328;8.542;2023-03-14T02:42:32;96386.75;;;9.05;87.22
69971;BME280;57301;50.328;8.542;2023-03-14T02:45:33;96388.28;;;8.86;88.99
69971;BME280;57301;50.328;8.542;2023-03-14T02:48:06;96371.69;;;8.78;88.67
69971;BME280;57301;50.328;8.542;2023-03-14T02:50:33;96388.44;;;8.78;87.97
69971;BME280;57301;50.328;8.542;2023-03-14T02:53:00;96386.16;;;8.75;88.41
69971;BME280;57301;50.328;8.542;2023-03-14T02:55:26;96385.94;;;8.77;87.55
69971;BME280;57301;50.328;8.542;2023-03-14T02:57:53;96362.28;;;8.82;86.96
69971;BME280;57301;50.328;8.542;2023-03-14T03:00:19;96374.78;;;8.88;85.53
69971;BME280;57301;50.328;8.542;2023-03-14T03:02:46;96384.00;;;8.85;84.63
69971;BME280;57301;50.328;8.542;2023-03-14T03:05:13;96362.53;;;8.87;84.29
69971;BME280;57301;50.328;8.542;2023-03-14T03:07:39;96363.34;;;8.87;84.07
69971;BME280;57301;50.328;8.542;2023-03-14T03:10:06;96371.50;;;8.86;83.89
69971;BME280;57301;50.328;8.542;2023-03-14T03:12:33;96379.31;;;8.94;82.97
69971;BME280;57301;50.328;8.542;2023-03-14T03:14:59;96366.47;;;8.98;82.25
69971;BME280;57301;50.328;8.542;2023-03-14T03:17:26;96358.50;;;8.98;82.90
69971;BME280;57301;50.328;8.542;2023-03-14T03:19:52;96378.50;;;8.94;82.96
69971;BME280;57301;50.328;8.542;2023-03-14T03:22:19;96372.19;;;9.01;81.39
69971;BME280;57301;50.328;8.542;2023-03-14T03:24:45;96360.75;;;9.01;81.57
69971;BME280;57301;50.328;8.542;2023-03-14T03:27:11;96362.00;;;9.05;81.48
69971;BME280;57301;50.328;8.542;2023-03-14T03:29:38;96360.78;;;9.07;81.58
69971;BME280;57301;50.328;8.542;2023-03-14T03:32:05;96352.44;;;9.10;81.77
69971;BME280;57301;50.328;8.542;2023-03-14T03:34:31;96350.75;;;9.03;81.44
69971;BME280;57301;50.328;8.542;2023-03-14T03:36:57;96342.78;;;9.03;81.42
69971;BME280;57301;50.328;8.542;2023-03-14T03:39:24;96350.34;;;9.06;81.80
69971;BME280;57301;50.328;8.542;2023-03-14T03:41:50;96337.06;;;9.06;81.26
69971;BME280;57301;50.328;8.542;2023-03-14T03:44:17;96338.47;;;9.02;81.26
69971;BME280;57301;50.328;8.542;2023-03-14T03:46:43;96338.09;;;9.05;81.05
69971;BME280;57301;50.328;8.542;2023-03-14T03:49:10;96346.22;;;8.97;81.79
69971;BME280;57301;50.328;8.542;2023-03-14T03:51:36;96349.88;;;8.96;81.52
69971;BME280;57301;50.328;8.542;2023-03-14T03:54:03;96340.53;;;9.06;81.32
69971;BME280;57301;50.328;8.542;2023-03-14T03:56:29;96330.72;;;9.07;81.98
69971;BME280;57301;50.328;8.542;2023-03-14T03:58:57;96336.47;;;9.10;81.53
69971;BME280;57301;50.328;8.542;2023-03-14T04:01:24;96327.69;;;9.10;81.90
69971;BME280;57301;50.328;8.542;2023-03-14T04:03:50;96327.06;;;9.14;82.27
69971;BME280;57301;50.328;8.542;2023-03-14T04:06:17;96325.06;;;9.17;81.92
69971;BME280;57301;50.328;8.542;2023-03-14T04:08:43;96319.94;;;9.15;81.53
69971;BME280;57301;50.328;8.542;2023-03-14T04:11:10;96314.44;;;9.23;81.55
69971;BME280;57301;50.328;8.542;2023-03-14T04:13:37;96311.78;;;9.23;80.98
69971;BME280;57301;50.328;8.542;2023-03-14T04:16:08;96285.56;;;9.20;81.79
69971;BME280;57301;50.328;8.542;2023-03-14T04:18:36;96300.31;;;9.16;81.96
69971;BME280;57301;50.328;8.542;2023-03-14T04:21:02;96297.63;;;9.09;81.64
69971;BME280;57301;50.328;8.542;2023-03-14T04:23:29;96305.94;;;9.00;83.00
69971;BME280;57301;50.328;8.542;2023-03-14T04:25:56;96295.13;;;9.01;82.47
69971;BME280;57301;50.328;8.542;2023-03-14T04:28:22;96308.06;;;9.11;82.02
69971;BME280;57301;50.328;8.542;2023-03-14T04:30:48;96303.31;;;9.06;82.17
69971;BME280;57301;50.328;8.542;2023-03-14T04:33:15;96300.63;;;9.00;82.16
69971;BME280;57301;50.328;8.542;2023-03-14T04:35:44;96299.03;;;9.05;81.92
69971;BME280;57301;50.328;8.542;2023-03-14T04:38:12;96319.03;;;9.01;82.62
69971;BME280;57301;50.328;8.542;2023-03-14T04:40:42;96297.22;;;9.12;80.87
69971;BME280;57301;50.328;8.542;2023-03-14T04:43:10;96294.34;;;9.14;81.18
69971;BME280;57301;50.328;8.542;2023-03-14T04:45:37;96291.72;;;9.21;81.09
69971;BME280;57301;50.328;8.542;2023-03-14T04:48:07;96290.69;;;9.15;81.24
69971;BME280;57301;50.328;8.542;2023-03-14T04:50:33;96292.31;;;9.16;80.08
69971;BME280;57301;50.328;8.542;2023-03-14T04:53:01;96285.56;;;9.20;79.97
69971;BME280;57301;50.328;8.542;2023-03-14T04:55:27;96278.81;;;9.18;80.40
69971;BME280;57301;50.328;8.542;2023-03-14T04:57:54;96297.63;;;9.09;81.20
69971;BME280;57301;50.328;8.542;2023-03-14T05:00:20;96282.31;;;9.18;80.63
69971;BME280;57301;50.328;8.542;2023-03-14T05:02:47;96297.00;;;9.14;81.84
69971;BME280;57301;50.328;8.542;2023-03-14T05:05:13;96275.34;;;9.17;80.93
69971;BME280;57301;50.328;8.542;2023-03-14T05:07:40;96285.78;;;9.19;80.23
69971;BME280;57301;50.328;8.542;2023-03-14T05:10:06;96283.94;;;9.19;80.89
69971;BME280;57301;50.328;8.542;2023-03-14T05:12:33;96297.09;;;9.34;79.80
69971;BME280;57301;50.328;8.542;2023-03-14T05:14:59;96286.38;;;9.21;79.89
69971;BME280;57301;50.328;8.542;2023-03-14T05:17:26;96287.84;;;9.23;78.80
69971;BME280;57301;50.328;8.542;2023-03-14T05:19:52;96285.56;;;9.20;79.24
69971;BME280;57301;50.328;8.542;2023-03-14T05:22:19;96292.75;;;9.26;79.22
69971;BME280;57301;50.328;8.542;2023-03-14T05:24:45;96277.81;;;9.25;78.62
69971;BME280;57301;50.328;8.542;2023-03-14T05:27:11;96289.28;;;9.26;78.61
69971;BME280;57301;50.328;8.542;2023-03-14T05:29:38;96274.78;;;9.28;79.10
69971;BME280;57301;50.328;8.542;2023-03-14T05:32:04;96266.56;;;9.23;79.71
69971;BME280;57301;50.328;8.542;2023-03-14T05:34:31;96265.31;;;9.19;79.42
69971;BME280;57301;50.328;8.542;2023-03-14T05:36:57;96257.75;;;9.16;80.75
69971;BME280;57301;50.328;8.542;2023-03-14T05:39:24;96260.00;;;9.19;79.69
69971;BME280;57301;50.328;8.542;2023-03-14T05:41:50;96254.88;;;9.11;79.65
69971;BME280;57301;50.328;8.542;2023-03-14T05:44:17;96255.03;;;8.96;81.97
69971;BME280;57301;50.328;8.542;2023-03-14T05:46:43;96255.84;;;8.90;83.11
69971;BME280;57301;50.328;8.542;2023-03-14T05:49:10;96251.34;;;8.91;82.96
69971;BME280;57301;50.328;8.542;2023-03-14T05:51:36;96232.53;;;8.99;81.81
69971;BME280;57301;50.328;8.542;2023-03-14T05:54:03;96218.44;;;8.98;81.10
69971;BME280;57301;50.328;8.542;2023-03-14T05:56:29;96225.19;;;9.01;80.51
69971;BME280;57301;50.328;8.542;2023-03-14T05:58:56;96232.34;;;9.07;80.92
69971;BME280;57301;50.328;8.542;2023-03-14T06:01:22;96221.91;;;8.92;82.27
69971;BME280;57301;50.328;8.542;2023-03-14T06:03:49;96225.69;;;8.70;86.71
69971;BME280;57301;50.328;8.542;2023-03-14T06:06:15;96215.78;;;8.50;86.85
69971;BME280;57301;50.328;8.542;2023-03-14T06:08:42;96216.00;;;8.49;87.43
69971;BME280;57301;50.328;8.542;2023-03-14T06:11:09;96217.66;;;8.56;87.18
69971;BME280;57301;50.328;8.542;2023-03-14T06:13:36;96227.09;;;8.66;85.34
69971;BME280;57301;50.328;8.542;2023-03-14T06:16:02;96213.41;;;8.69;87.32
69971;BME280;57301;50.328;8.542;2023-03-14T06:18:29;96208.69;;;8.64;86.77
69971;BME280;57301;50.328;8.542;2023-03-14T06:20:56;96212.75;;;8.53;87.00
69971;BME280;57301;50.328;8.542;2023-03-14T06:23:23;96217.34;;;8.38;89.17
69971;BME280;57301;50.328;8.542;2023-03-14T06:25:49;96220.28;;;8.22;90.23
69971;BME280;57301;50.328;8.542;2023-03-14T06:28:15;96224.13;;;8.13;91.12
69971;BME280;57301;50.328;8.542;2023-03-14T06:30:42;96228.16;;;8.08;92.59
69971;BME280;57301;50.328;8.542;2023-03-14T06:33:09;96237.97;;;8.08;92.86
69971;BME280;57301;50.328;8.542;2023-03-14T06:35:36;96225.38;;;8.17;91.21
69971;BME280;57301;50.328;8.542;2023-03-14T06:38:02;96224.53;;;8.16;91.35
69971;BME280;57301;50.328;8.542;2023-03-14T06:40:29;96214.38;;;8.26;89.02
69971;BME280;57301;50.328;8.542;2023-03-14T06:42:56;96214.03;;;8.29;88.97
69971;BME280;57301;50.328;8.542;2023-03-14T06:45:23;96205.66;;;8.32;87.87
69971;BME280;57301;50.328;8.542;2023-03-14T06:47:49;96217.16;;;8.40;86.54
69971;BME280;57301;50.328;8.542;2023-03-14T06:50:16;96205.72;;;8.39;86.53
69971;BME280;57301;50.328;8.542;2023-03-14T06:52:42;96223.13;;;8.48;85.44
69971;BME280;57301;50.328;8.542;2023-03-14T06:55:14;96232.31;;;8.46;85.98
69971;BME280;57301;50.328;8.542;2023-03-14T06:57:41;96218.84;;;8.47;86.69
69971;BME280;57301;50.328;8.542;2023-03-14T07:00:08;96223.13;;;8.48;86.20
69971;BME280;57301;50.328;8.542;2023-03-14T07:02:35;96238.66;;;8.51;85.93
69971;BME280;57301;50.328;8.542;2023-03-14T07:05:08;96225.63;;;8.56;86.46
69971;BME280;57301;50.328;8.542;2023-03-14T07:07:36;96235.03;;;8.59;85.67
69971;BME280;57301;50.328;8.542;2023-03-14T07:10:03;96234.44;;;8.64;85.55
69971;BME280;57301;50.328;8.542;2023-03-14T07:12:30;96238.56;;;8.66;85.05
69971;BME280;57301;50.328;8.542;2023-03-14T07:14:56;96235.50;;;8.69;83.74
69971;BME280;57301;50.328;8.542;2023-03-14T07:17:37;96226.34;;;8.78;83.52
69971;BME280;57301;50.328;8.542;2023-03-14T07:20:04;96235.53;;;8.82;83.38
69971;BME280;57301;50.328;8.542;2023-03-14T07:22:33;96241.28;;;8.86;83.57
69971;BME280;57301;50.328;8.542;2023-03-14T07:25:00;96230.28;;;8.96;82.77
69971;BME280;57301;50.328;8.542;2023-03-14T07:27:26;96241.09;;;8.94;83.03
69971;BME280;57301;50.328;8.542;2023-03-14T07:29:53;96238.69;;;9.06;82.97
69971;BME280;57301;50.328;8.542;2023-03-14T07:32:19;96237.09;;;9.11;82.61
69971;BME280;57301;50.328;8.542;2023-03-14T07:34:46;96232.59;;;9.12;83.20
69971;BME280;57301;50.328;8.542;2023-03-14T07:37:12;96235.44;;;9.10;81.96
69971;BME280;57301;50.328;8.542;2023-03-14T07:39:39;96228.06;;;9.06;82.48
69971;BME280;57301;50.328;8.542;2023-03-14T07:42:05;96236.88;;;9.20;81.64
69971;BME280;57301;50.328;8.542;2023-03-14T07:44:32;96236.09;;;9.32;81.49
69971;BME280;57301;50.328;8.542;2023-03-14T07:46:59;96246.38;;;9.49;82.01
69971;BME280;57301;50.328;8.542;2023-03-14T07:49:25;96227.09;;;9.27;81.92
69971;BME280;57301;50.328;8.542;2023-03-14T07:51:52;96242.41;;;9.18;82.97
69971;BME280;57301;50.328;8.542;2023-03-14T07:54:18;96240.19;;;9.22;82.81
69971;BME280;57301;50.328;8.542;2023-03-14T07:56:46;96239.75;;;9.18;82.33
69971;BME280;57301;50.328;8.542;2023-03-14T07:59:12;96246.09;;;9.17;82.31
69971;BME280;57301;50.328;8.542;2023-03-14T08:01:39;96240.34;;;9.13;82.27
69971;BME280;57301;50.328;8.542;2023-03-14T08:04:05;96238.75;;;9.32;81.50
69971;BME280;57301;50.328;8.542;2023-03-14T08:06:32;96233.03;;;9.29;82.33
69971;BME280;57301;50.328;8.542;2023-03-14T08:08:58;96235.94;;;9.34;81.61
69971;BME280;57301;50.328;8.542;2023-03-14T08:11:25;96241.25;;;9.40;81.48
69971;BME280;57301;50.328;8.542;2023-03-14T08:13:51;96231.81;;;9.31;81.17
69971;BME280;57301;50.328;8.542;2023-03-14T08:16:18;96236.56;;;9.56;81.89
69971;BME280;57301;50.328;8.542;2023-03-14T08:18:45;96240.69;;;9.65;80.50
69971;BME280;57301;50.328;8.542;2023-03-14T08:21:12;96237.81;;;9.66;80.93
69971;BME280;57301;50.328;8.542;2023-03-14T08:23:38;96228.19;;;9.72;79.35
69971;BME280;57301;50.328;8.542;2023-03-14T08:26:06;96226.94;;;9.75;79.56
69971;BME280;57301;50.328;8.542;2023-03-14T08:28:33;96238.41;;;9.68;79.54
69971;BME280;57301;50.328;8.542;2023-03-14T08:31:00;96234.94;;;9.61;81.47
69971;BME280;57301;50.328;8.542;2023-03-14T08:33:28;96234.53;;;9.58;79.82
69971;BME280;57301;50.328;8.542;2023-03-14T08:35:56;96233.28;;;9.54;80.15
69971;BME280;57301;50.328;8.542;2023-03-14T08:38:23;96235.94;;;9.54;80.29
69971;BME280;57301;50.328;8.542;2023-03-14T08:40:55;96256.63;;;9.52;79.95
69971;BME280;57301;50.328;8.542;2023-03-14T08:43:22;96230.22;;;9.57;80.97
69971;BME280;57301;50.328;8.542;2023-03-14T08:45:48;96237.59;;;9.68;80.29
69971;BME280;57301;50.328;8.542;2023-03-14T08:48:15;96240.88;;;9.96;80.21
69971;BME280;57301;50.328;8.542;2023-03-14T08:50:41;96240.28;;;10.28;78.63
69971;BME280;57301;50.328;8.542;2023-03-14T08:53:07;96236.78;;;10.34;77.93
69971;BME280;57301;50.328;8.542;2023-03-14T08:55:35;96247.00;;;10.50;76.19
69971;BME280;57301;50.328;8.542;2023-03-14T08:58:01;96239.81;;;10.57;76.59
69971;BME280;57301;50.328;8.542;2023-03-14T09:00:28;96237.53;;;10.61;76.69
69971;BME280;57301;50.328;8.542;2023-03-14T09:02:55;96242.81;;;10.74;76.50
69971;BME280;57301;50.328;8.542;2023-03-14T09:05:21;96249.47;;;11.03;75.05
69971;BME280;57301;50.328;8.542;2023-03-14T09:07:48;96249.63;;;10.70;75.92
69971;BME280;57301;50.328;8.542;2023-03-14T09:10:14;96256.13;;;10.87;76.82
69971;BME280;57301;50.328;8.542;2023-03-14T09:12:40;96250.97;;;10.86;77.33
69971;BME280;57301;50.328;8.542;2023-03-14T09:15:07;96260.13;;;10.52;78.17
69971;BME280;57301;50.328;8.542;2023-03-14T09:17:34;96256.00;;;10.49;79.75
69971;BME280;57301;50.328;8.542;2023-03-14T09:20:02;96267.13;;;10.26;80.73
69971;BME280;57301;50.328;8.542;2023-03-14T09:22:32;96266.50;;;10.44;82.80
69971;BME280;57301;50.328;8.542;2023-03-14T09:25:03;96274.91;;;10.34;82.83
69971;BME280;57301;50.328;8.542;2023-03-14T09:27:29;96275.50;;;10.30;85.42
69971;BME280;57301;50.328;8.542;2023-03-14T09:29:56;96285.94;;;10.11;86.00
69971;BME280;57301;50.328;8.542;2023-03-14T09:32:22;96276.91;;;9.79;86.33
69971;BME280;57301;50.328;8.542;2023-03-14T09:34:49;96282.00;;;9.67;88.92
69971;BME280;57301;50.328;8.542;2023-03-14T09:37:15;96275.66;;;9.62;90.88
69971;BME280;57301;50.328;8.542;2023-03-14T09:39:42;96273.66;;;9.77;91.97
69971;BME280;57301;50.328;8.542;2023-03-14T09:42:14;96281.63;;;9.77;91.42
69971;BME280;57301;50.328;8.542;2023-03-14T09:44:56;96286.09;;;9.57;90.79
69971;BME280;57301;50.328;8.542;2023-03-14T09:47:23;96274.84;;;9.68;88.89
69971;BME280;57301;50.328;8.542;2023-03-14T09:49:51;96266.88;;;9.88;88.32
69971;BME280;57301;50.328;8.542;2023-03-14T09:52:25;96273.66;;;9.84;85.95
69971;BME280;57301;50.328;8.542;2023-03-14T09:55:03;96272.63;;;9.85;83.87
69971;BME280;57301;50.328;8.542;2023-03-14T09:57:32;96276.91;;;9.66;85.21
69971;BME280;57301;50.328;8.542;2023-03-14T10:00:21;96284.69;;;9.74;85.35
69971;BME280;57301;50.328;8.542;2023-03-14T10:02:56;96282.84;;;9.68;84.74
69971;BME280;57301;50.328;8.542;2023-03-14T10:05:26;96260.13;;;9.72;83.92
69971;BME280;57301;50.328;8.542;2023-03-14T10:07:55;96270.56;;;9.87;84.18
69971;BME280;57301;50.328;8.542;2023-03-14T10:10:24;96265.44;;;9.85;83.65
69971;BME280;57301;50.328;8.542;2023-03-14T10:15:37;96271.56;;;9.53;86.70
69971;BME280;57301;50.328;8.542;2023-03-14T10:18:11;96274.03;;;9.61;86.96
69971;BME280;57301;50.328;8.542;2023-03-14T10:20:42;96271.16;;;9.56;87.23
69971;BME280;57301;50.328;8.542;2023-03-14T10:25:43;96275.41;;;9.43;87.34
69971;BME280;57301;50.328;8.542;2023-03-14T10:28:26;96274.41;;;9.51;88.05
69971;BME280;57301;50.328;8.542;2023-03-14T10:30:54;96275.63;;;9.49;88.20
69971;BME280;57301;50.328;8.542;2023-03-14T10:33:30;96275.84;;;9.40;88.94
69971;BME280;57301;50.328;8.542;2023-03-14T10:35:59;96270.91;;;9.51;88.98
69971;BME280;57301;50.328;8.542;2023-03-14T10:38:32;96280.38;;;9.60;87.99
69971;BME280;57301;50.328;8.542;2023-03-14T10:40:59;96274.16;;;9.33;89.93
69971;BME280;57301;50.328;8.542;2023-03-14T10:43:34;96279.94;;;9.50;90.97
69971;BME280;57301;50.328;8.542;2023-03-14T10:46:19;96277.88;;;9.45;91.50
69971;BME280;57301;50.328;8.542;2023-03-14T10:48:46;96284.66;;;9.48;90.82
69971;BME280;57301;50.328;8.542;2023-03-14T10:51:22;96287.94;;;9.69;90.33
69971;BME280;57301;50.328;8.542;2023-03-14T10:54:13;96279.34;;;9.74;89.97
69971;BME280;57301;50.328;8.542;2023-03-14T10:56:40;96273.41;;;9.52;92.03
69971;BME280;57301;50.328;8.542;2023-03-14T10:59:12;96284.44;;;9.56;91.82
69971;BME280;57301;50.328;8.542;2023-03-14T11:02:14;96276.91;;;9.59;91.30
69971;BME280;57301;50.328;8.542;2023-03-14T11:05:07;96279.91;;;9.43;92.89
69971;BME280;57301;50.328;8.542;2023-03-14T11:07:44;96273.56;;;9.37;93.34
69971;BME280;57301;50.328;8.542;2023-03-14T11:10:25;96275.84;;;9.47;94.43
69971;BME280;57301;50.328;8.542;2023-03-14T11:13:15;96277.69;;;9.47;92.64
69971;BME280;57301;50.328;8.542;2023-03-14T11:20:59;96285.25;;;9.50;93.37
69971;BME280;57301;50.328;8.542;2023-03-14T11:28:49;96272.75;;;9.43;94.33
69971;BME280;57301;50.328;8.542;2023-03-14T11:31:21;96274.81;;;9.48;94.37
69971;BME280;57301;50.328;8.542;2023-03-14T11:34:13;96280.16;;;9.61;95.88
69971;BME280;57301;50.328;8.542;2023-03-14T11:36:48;96274.22;;;9.46;94.64
69971;BME280;57301;50.328;8.542;2023-03-14T11:39:19;96275.84;;;9.54;93.59
69971;BME280;57301;50.328;8.542;2023-03-14T11:41:49;96278.16;;;9.70;94.87
69971;BME280;57301;50.328;8.542;2023-03-14T11:44:23;96270.34;;;9.82;95.79
69971;BME280;57301;50.328;8.542;2023-03-14T11:47:03;96292.63;;;9.54;95.66
69971;BME280;57301;50.328;8.542;2023-03-14T11:52:09;96419.53;;;8.35;99.51
69971;BME280;57301;50.328;8.542;2023-03-14T11:54:50;96433.97;;;7.90;100.00
69971;BME280;57301;50.328;8.542;2023-03-14T11:57:22;96445.28;;;7.77;100.00
69971;BME280;57301;50.328;8.542;2023-03-14T12:00:00;96460.84;;;7.80;100.00
69971;BME280;57301;50.328;8.542;2023-03-14T12:10:42;96502.19;;;7.30;98.57
69971;BME280;57301;50.328;8.542;2023-03-14T12:13:13;96510.53;;;7.27;98.79
69971;BME280;57301;50.328;8.542;2023-03-14T12:15:49;96514.91;;;7.35;98.48
69971;BME280;57301;50.328;8.542;2023-03-14T12:21:04;96511.44;;;7.49;97.95
69971;BME280;57301;50.328;8.542;2023-03-14T12:23:52;96519.13;;;7.44;96.77
69971;BME280;57301;50.328;8.542;2023-03-14T12:26:21;96521.56;;;7.60;96.90
69971;BME280;57301;50.328;8.542;2023-03-14T12:29:15;96531.19;;;7.76;93.55
69971;BME280;57301;50.328;8.542;2023-03-14T12:31:44;96526.72;;;7.62;91.15
69971;BME280;57301;50.328;8.542;2023-03-14T12:42:01;96533.78;;;9.06;86.73
69971;BME280;57301;50.328;8.542;2023-03-14T12:49:40;96530.97;;;9.70;80.83
69971;BME280;57301;50.328;8.542;2023-03-14T12:52:14;96549.94;;;9.60;82.12
69971;BME280;57301;50.328;8.542;2023-03-14T12:55:17;96562.16;;;8.99;82.49
69971;BME280;57301;50.328;8.542;2023-03-14T12:58:03;96564.56;;;8.51;84.00
69971;BME280;57301;50.328;8.542;2023-03-14T13:00:37;96578.59;;;8.30;86.49
69971;BME280;57301;50.328;8.542;2023-03-14T13:03:26;96588.06;;;8.03;87.24
69971;BME280;57301;50.328;8.542;2023-03-14T13:06:03;96608.38;;;8.25;85.85
69971;BME280;57301;50.328;8.542;2023-03-14T13:08:35;96614.22;;;8.21;85.53
69971;BME280;57301;50.328;8.542;2023-03-14T13:11:09;96612.53;;;7.98;84.17
69971;BME280;57301;50.328;8.542;2023-03-14T13:13:41;96620.06;;;8.46;84.63
69971;BME280;57301;50.328;8.542;2023-03-14T13:16:23;96629.88;;;8.60;81.44
69971;BME280;57301;50.328;8.542;2023-03-14T13:18:59;96644.31;;;8.94;80.62
69971;BME280;57301;50.328;8.542;2023-03-14T13:21:27;96647.59;;;9.38;78.88
69971;BME280;57301;50.328;8.542;2023-03-14T13:26:36;96651.28;;;10.63;75.75
69971;BME280;57301;50.328;8.542;2023-03-14T13:29:21;96656.22;;;12.58;67.06
69971;BME280;57301;50.328;8.542;2023-03-14T13:31:50;96667.69;;;11.74;67.92
69971;BME280;57301;50.328;8.542;2023-03-14T13:34:17;96680.88;;;10.81;67.27
69971;BME280;57301;50.328;8.542;2023-03-14T13:36:44;96687.94;;;11.15;68.11
69971;BME280;57301;50.328;8.542;2023-03-14T13:39:18;96693.75;;;12.18;65.81
69971;BME280;57301;50.328;8.542;2023-03-14T13:41:46;96704.97;;;13.11;63.06
69971;BME280;57301;50.328;8.542;2023-03-14T13:44:26;96721.94;;;12.92;61.67
69971;BME280;57301;50.328;8.542;2023-03-14T13:46:58;96728.22;;;11.53;65.14
69971;BME280;57301;50.328;8.542;2023-03-14T13:49:26;96743.63;;;11.45;67.37
69971;BME280;57301;50.328;8.542;2023-03-14T13:51:53;96768.97;;;10.32;71.39
69971;BME280;57301;50.328;8.542;2023-03-14T13:54:21;96798.59;;;8.85;80.53
69971;BME280;57301;50.328;8.542;2023-03-14T13:56:48;96804.75;;;8.19;83.49
69971;BME280;57301;50.328;8.542;2023-03-14T13:59:26;96829.09;;;7.62;85.15
69971;BME280;57301;50.328;8.542;2023-03-14T14:01:53;96843.44;;;7.75;87.57
69971;BME280;57301;50.328;8.542;2023-03-14T14:04:22;96827.09;;;7.64;85.25
69971;BME280;57301;50.328;8.542;2023-03-14T14:06:57;96833.50;;;7.46;83.55
69971;BME280;57301;50.328;8.542;2023-03-14T14:09:27;96862.16;;;7.97;83.46
69971;BME280;57301;50.328;8.542;2023-03-14T14:17:31;96904.34;;;7.92;83.62